Time;durP1;ratioP1;P1;durP2;ratioP2;P2;SDS_P1;SDS_P2;PMS_P1;PMS_P2;Temp;Humidity;BMP_temperature;BMP_pressure;BME280_temperature;BME280_humidity;BME280_pressure;Samples;Min_cycle;Max_cycle;Signal;HPM_P1;HPM_P2
2023/01/31 00:02:31;;;;;;;22.00;13.90;;;;;;;-3.40;69.50;99250.26;105955;1254;59650;-80
2023/01/31 00:05:00;;;;;;;20.80;13.60;;;;;;;-3.41;69.54;99244.79;105832;1258;65618;-81
2023/01/31 00:07:28;;;;;;;20.50;13.30;;;;;;;-3.41;69.53;99239.79;105849;1256;60206;-81
2023/01/31 00:09:56;;;;;;;24.90;13.90;;;;;;;-3.42;69.61;99237.77;105792;1258;65727;-75
2023/01/31 00:12:24;;;;;;;23.60;14.50;;;;;;;-3.42;69.67;99238.10;105683;1258;59589;-81
2023/01/31 00:14:53;;;;;;;23.00;13.90;;;;;;;-3.42;69.65;99240.02;105878;1254;59637;-82
2023/01/31 00:17:21;;;;;;;23.70;14.00;;;;;;;-3.43;69.74;99235.91;105840;1258;65933;-81
2023/01/31 00:19:49;;;;;;;22.90;14.50;;;;;;;-3.43;69.71;99238.16;105806;1257;59743;-81
2023/01/31 00:22:17;;;;;;;22.20;14.00;;;;;;;-3.45;69.71;99241.66;105819;1268;63819;-80
2023/01/31 00:24:46;;;;;;;21.70;13.80;;;;;;;-3.48;69.86;99241.58;105692;1260;60516;-79
2023/01/31 00:27:14;;;;;;;21.00;13.60;;;;;;;-3.50;69.92;99236.66;105719;1254;60466;-81
2023/01/31 00:29:42;;;;;;;21.80;13.90;;;;;;;-3.51;69.94;99237.58;106024;1256;66506;-81
2023/01/31 00:32:10;;;;;;;20.30;12.90;;;;;;;-3.52;69.93;99233.15;105902;1255;60543;-83
2023/01/31 00:34:39;;;;;;;20.70;13.70;;;;;;;-3.52;70.01;99237.13;105849;1258;65562;-83
2023/01/31 00:37:07;;;;;;;21.30;13.60;;;;;;;-3.53;70.07;99237.49;105838;1260;60536;-82
2023/01/31 00:39:37;;;;;;;22.60;14.20;;;;;;;-3.54;70.12;99236.86;105798;1258;60421;-80
2023/01/31 00:42:05;;;;;;;20.50;13.30;;;;;;;-3.55;70.14;99236.23;105811;1254;66623;-81
2023/01/31 00:44:35;;;;;;;21.60;13.60;;;;;;;-3.55;70.16;99236.41;105775;1260;60607;-80
2023/01/31 00:47:04;;;;;;;20.90;13.70;;;;;;;-3.55;70.20;99236.58;105708;1255;64265;-80
2023/01/31 00:49:32;;;;;;;21.60;13.80;;;;;;;-3.55;70.29;99235.69;105757;1260;60530;-80
2023/01/31 00:52:00;;;;;;;21.90;13.60;;;;;;;-3.54;70.34;99234.98;105810;1260;60459;-82
2023/01/31 00:54:28;;;;;;;23.30;13.80;;;;;;;-3.53;70.40;99233.37;105860;1258;66807;-81
2023/01/31 00:56:57;;;;;;;22.50;13.10;;;;;;;-3.52;70.39;99231.77;105874;1260;60601;-81
2023/01/31 00:59:26;;;;;;;23.10;13.70;;;;;;;-3.52;70.31;99223.84;105849;1260;65565;-81
2023/01/31 01:01:54;;;;;;;20.30;13.20;;;;;;;-3.53;70.37;99220.30;105585;1260;60497;-81
2023/01/31 01:04:23;;;;;;;20.60;13.40;;;;;;;-3.54;70.33;99222.59;105797;1254;60446;-81
2023/01/31 01:06:51;;;;;;;19.90;13.30;;;;;;;-3.56;70.34;99221.95;106027;1260;66530;-80
2023/01/31 01:09:21;;;;;;;20.10;13.60;;;;;;;-3.58;70.40;99219.63;105734;1261;60459;-82
2023/01/31 01:11:49;;;;;;;21.50;13.50;;;;;;;-3.59;70.47;99221.07;105847;1254;64679;-81
2023/01/31 01:14:18;;;;;;;21.80;13.20;;;;;;;-3.60;70.54;99220.25;105883;1257;60338;-81
2023/01/31 01:16:48;;;;;;;22.20;13.40;;;;;;;-3.62;70.52;99218.42;105884;1255;60559;-81
2023/01/31 01:19:18;;;;;;;21.50;13.10;;;;;;;-3.63;70.60;99216.22;105759;1254;66664;-81
2023/01/31 01:21:47;;;;;;;20.80;13.30;;;;;;;-3.63;70.58;99218.99;105537;1260;60543;-81
2023/01/31 01:24:17;;;;;;;20.90;13.00;;;;;;;-3.62;70.70;99221.03;105926;1258;65758;-82
2023/01/31 01:26:47;;;;;;;21.60;14.30;;;;;;;-3.63;70.74;99224.86;106015;1255;60445;-81
2023/01/31 01:29:15;;;;;;;21.30;13.20;;;;;;;-3.63;70.80;99220.54;105886;1254;60499;-81
2023/01/31 01:31:45;;;;;;;20.80;13.10;;;;;;;-3.62;70.78;99218.42;105749;1254;66576;-82
2023/01/31 01:34:14;;;;;;;20.10;13.20;;;;;;;-3.62;70.79;99214.14;105736;1260;60550;-81
2023/01/31 01:36:43;;;;;;;21.40;13.20;;;;;;;-3.62;70.78;99207.95;105547;1260;65585;-79
2023/01/31 01:39:15;;;;;;;21.00;13.10;;;;;;;-3.62;70.94;99206.05;105951;1259;60363;-81
2023/01/31 01:41:44;;;;;;;21.00;13.20;;;;;;;-3.61;70.94;99214.10;105845;1260;60783;-82
2023/01/31 01:44:51;;;;;;;22.80;13.80;;;;;;;-3.61;70.99;99215.29;105909;1259;66480;-81
2023/01/31 01:47:39;;;;;;;24.20;13.90;;;;;;;-3.60;70.95;99216.64;106026;1260;60367;-82
2023/01/31 01:50:21;;;;;;;23.40;13.60;;;;;;;-3.61;71.00;99212.04;105801;1259;65491;-82
2023/01/31 01:53:11;;;;;;;21.90;12.10;;;;;;;-3.62;71.07;99207.60;105552;1254;60451;-81
2023/01/31 01:55:45;;;;;;;21.20;13.30;;;;;;;-3.62;71.09;99208.27;105755;1261;60482;-81
2023/01/31 01:58:24;;;;;;;24.60;14.50;;;;;;;-3.61;71.13;99211.69;105762;1254;66972;-82
2023/01/31 02:00:54;;;;;;;22.70;13.90;;;;;;;-3.60;71.19;99213.02;105798;1260;60417;-82
2023/01/31 02:03:22;;;;;;;23.20;13.20;;;;;;;-3.58;71.21;99208.98;105867;1258;65398;-81
2023/01/31 02:06:08;;;;;;;23.00;14.00;;;;;;;-3.57;71.25;99208.58;105722;1254;60526;-81
2023/01/31 02:08:38;;;;;;;21.80;13.00;;;;;;;-3.57;71.24;99205.48;105613;1256;60697;-81
2023/01/31 02:11:10;;;;;;;23.20;13.90;;;;;;;-3.57;71.23;99203.09;105684;1254;66367;-81
2023/01/31 02:13:39;;;;;;;23.20;14.10;;;;;;;-3.58;71.27;99206.55;105809;1260;60880;-81
2023/01/31 02:16:12;;;;;;;23.00;14.30;;;;;;;-3.57;71.23;99209.29;105786;1258;64692;-81
2023/01/31 02:18:42;;;;;;;22.00;12.90;;;;;;;-3.57;71.28;99209.63;105865;1257;60332;-81
2023/01/31 02:21:31;;;;;;;22.00;14.20;;;;;;;-3.57;71.23;99205.14;105794;1269;62164;-80
2023/01/31 02:24:05;;;;;;;21.30;13.40;;;;;;;-3.55;71.27;99203.17;105832;1260;66824;-81
2023/01/31 02:27:03;;;;;;;21.30;13.70;;;;;;;-3.55;71.34;99205.75;105771;1260;60565;-81
2023/01/31 02:29:56;;;;;;;20.80;12.90;;;;;;;-3.55;71.34;99206.45;105813;1255;65289;-78
2023/01/31 02:32:50;;;;;;;20.50;13.10;;;;;;;-3.55;71.38;99206.45;105921;1258;60401;-81
2023/01/31 02:35:43;;;;;;;24.70;14.70;;;;;;;-3.54;71.40;99203.48;105789;1257;60431;-79
2023/01/31 02:38:29;;;;;;;21.60;13.40;;;;;;;-3.53;71.43;99201.22;105804;1259;65762;-81
2023/01/31 02:47:38;;;;;;;22.00;14.20;;;;;;;-3.46;71.53;99207.79;102590;1292;606930;-80
2023/01/31 02:50:11;;;;;;;21.60;14.20;;;;;;;-3.48;71.49;99213.20;105349;1267;59254;-80
2023/01/31 02:52:58;;;;;;;21.00;13.40;;;;;;;-3.47;71.53;99212.67;105476;1265;59205;-80
2023/01/31 02:58:21;;;;;;;23.60;13.60;;;;;;;-3.49;71.49;99216.52;105409;1259;60653;-80
2023/01/31 03:00:48;;;;;;;23.40;15.10;;;;;;;-3.51;71.55;99216.07;105206;1258;181301;-80
2023/01/31 03:03:24;;;;;;;23.50;14.40;;;;;;;-3.53;71.61;99219.77;105285;1259;59361;-79
2023/01/31 03:06:23;;;;;;;24.60;15.00;;;;;;;-3.54;71.64;99224.30;105401;1258;59367;-79
2023/01/31 03:09:21;;;;;;;23.70;14.60;;;;;;;-3.55;71.74;99225.02;105422;1257;65087;-80
2023/01/31 03:12:15;;;;;;;22.90;14.30;;;;;;;-3.56;71.68;99221.80;105265;1261;59828;-80
2023/01/31 03:15:02;;;;;;;22.60;13.90;;;;;;;-3.58;71.74;99220.48;105481;1259;65582;-81
2023/01/31 03:17:35;;;;;;;23.10;12.40;;;;;;;-3.59;71.83;99219.66;105365;1260;59541;-80
2023/01/31 03:20:03;;;;;;;23.50;13.80;;;;;;;-3.60;71.86;99226.23;105322;1258;59810;-80
2023/01/31 03:22:39;;;;;;;22.30;13.50;;;;;;;-3.61;71.88;99226.67;105550;1259;65720;-80
2023/01/31 03:25:10;;;;;;;21.40;13.30;;;;;;;-3.63;71.89;99227.57;105205;1263;61687;-80
2023/01/31 03:27:40;;;;;;;21.90;13.90;;;;;;;-3.63;72.01;99229.83;105350;1260;66005;-81
2023/01/31 03:30:12;;;;;;;25.00;14.70;;;;;;;-3.64;72.10;99224.71;105215;1264;63761;-80
2023/01/31 03:32:44;;;;;;;23.20;14.70;;;;;;;-3.65;72.15;99221.82;105311;1260;59996;-80
2023/01/31 03:35:10;;;;;;;24.20;14.60;;;;;;;-3.65;72.17;99218.73;105753;1263;65721;-79
2023/01/31 03:37:43;;;;;;;22.20;14.10;;;;;;;-3.66;72.19;99226.86;105843;1262;59554;-81
2023/01/31 03:40:26;;;;;;;22.60;14.30;;;;;;;-3.66;72.27;99225.30;105229;1258;65449;-81
2023/01/31 03:43:14;;;;;;;23.90;13.70;;;;;;;-3.65;72.30;99223.39;105320;1259;59754;-81
2023/01/31 03:45:45;;;;;;;22.60;13.70;;;;;;;-3.64;72.30;99226.27;105333;1260;59543;-82
2023/01/31 03:48:16;;;;;;;21.90;14.20;;;;;;;-3.64;72.43;99226.45;105640;1259;64777;-82
2023/01/31 03:50:52;;;;;;;21.90;14.40;;;;;;;-3.65;72.47;99224.41;105627;1258;59774;-82
2023/01/31 03:53:24;;;;;;;24.60;14.70;;;;;;;-3.65;72.55;99228.87;105944;1260;65514;-82
2023/01/31 03:56:04;;;;;;;20.40;13.40;;;;;;;-3.64;72.59;99228.66;105355;1260;59688;-81
2023/01/31 03:58:34;;;;;;;23.60;14.90;;;;;;;-3.62;72.70;99229.61;105321;1258;59652;-81
2023/01/31 04:01:04;;;;;;;25.30;15.00;;;;;;;-3.62;72.69;99233.89;105731;1259;64764;-81
2023/01/31 04:03:39;;;;;;;23.90;15.20;;;;;;;-3.62;72.74;99231.84;105903;1259;59935;-76
2023/01/31 04:06:06;;;;;;;23.70;14.80;;;;;;;-3.61;72.85;99231.14;105721;1261;65435;-82
2023/01/31 04:08:34;;;;;;;26.10;15.00;;;;;;;-3.61;72.93;99226.65;105574;1259;59598;-82
2023/01/31 04:11:04;;;;;;;22.60;14.70;;;;;;;-3.60;72.98;99224.88;105487;1258;59773;-81
2023/01/31 04:13:31;;;;;;;23.10;14.70;;;;;;;-3.59;73.06;99229.46;105771;1258;65946;-81
2023/01/31 04:15:58;;;;;;;24.30;15.10;;;;;;;-3.58;73.23;99230.64;105409;1263;59878;-81
2023/01/31 04:18:25;;;;;;;25.90;16.10;;;;;;;-3.58;73.35;99240.97;105459;1258;65876;-80
2023/01/31 04:20:52;;;;;;;25.40;16.20;;;;;;;-3.59;73.50;99247.04;105651;1259;59537;-80
2023/01/31 04:23:19;;;;;;;26.50;15.60;;;;;;;-3.60;73.56;99249.13;105771;1255;61066;-82
2023/01/31 04:25:47;;;;;;;23.80;15.30;;;;;;;-3.60;73.73;99242.79;105830;1257;65922;-82
2023/01/31 04:28:14;;;;;;;22.80;14.90;;;;;;;-3.60;73.81;99237.97;105877;1254;59936;-81
2023/01/31 04:30:41;;;;;;;24.00;15.30;;;;;;;-3.60;73.87;99240.38;105577;1256;65433;-80
2023/01/31 04:33:08;;;;;;;22.90;15.60;;;;;;;-3.60;73.99;99244.85;105847;1254;59642;-81
2023/01/31 04:35:38;;;;;;;25.50;16.40;;;;;;;-3.61;74.12;99247.80;105768;1257;59750;-81
2023/01/31 04:38:05;;;;;;;24.10;15.20;;;;;;;-3.62;74.20;99245.61;105864;1257;65706;-81
2023/01/31 04:40:32;;;;;;;25.90;16.30;;;;;;;-3.63;74.35;99244.61;106068;1255;59743;-81
2023/01/31 04:43:00;;;;;;;25.40;16.50;;;;;;;-3.62;74.49;99247.52;105695;1254;64461;-80
2023/01/31 04:45:27;;;;;;;27.70;16.60;;;;;;;-3.64;74.64;99249.45;105648;1254;59768;-82
2023/01/31 04:47:53;;;;;;;23.90;15.70;;;;;;;-3.63;74.69;99250.84;105613;1254;59646;-82
2023/01/31 04:50:20;;;;;;;23.50;15.70;;;;;;;-3.63;74.77;99249.43;105919;1253;65956;-81
2023/01/31 04:52:50;;;;;;;26.90;17.00;;;;;;;-3.60;74.87;99247.77;105606;1257;60110;-82
2023/01/31 04:55:18;;;;;;;26.90;17.00;;;;;;;-3.59;74.94;99255.47;105539;1253;65324;-82
2023/01/31 04:57:45;;;;;;;26.70;18.00;;;;;;;-3.60;74.98;99256.70;105713;1257;59716;-82
2023/01/31 05:00:12;;;;;;;24.80;16.50;;;;;;;-3.60;75.14;99260.85;105560;1261;59598;-80
2023/01/31 05:02:39;;;;;;;28.70;17.60;;;;;;;-3.61;75.27;99260.02;105730;1257;66313;-83
2023/01/31 05:05:07;;;;;;;26.50;17.00;;;;;;;-3.61;75.29;99264.34;105596;1257;68374;-83
2023/01/31 05:07:35;;;;;;;26.70;17.10;;;;;;;-3.61;75.38;99265.70;105469;1256;65255;-82
2023/01/31 05:10:02;;;;;;;25.50;17.40;;;;;;;-3.61;75.52;99266.04;105889;1258;61223;-82
2023/01/31 05:12:29;;;;;;;26.90;17.20;;;;;;;-3.60;75.62;99268.58;105914;1258;59527;-82
2023/01/31 05:14:56;;;;;;;30.00;18.10;;;;;;;-3.59;75.74;99271.30;105653;1256;66110;-82
2023/01/31 05:17:28;;;;;;;29.70;18.70;;;;;;;-3.58;75.76;99273.52;105854;1255;60911;-81
2023/01/31 05:19:56;;;;;;;28.80;18.40;;;;;;;-3.57;75.86;99270.71;105750;1254;65440;-78
2023/01/31 05:22:23;;;;;;;26.80;17.50;;;;;;;-3.55;75.97;99274.75;105754;1255;59649;-81
2023/01/31 05:24:50;;;;;;;27.40;17.50;;;;;;;-3.54;75.99;99276.08;106125;1257;59715;-81
2023/01/31 05:27:17;;;;;;;29.10;18.90;;;;;;;-3.54;76.06;99277.28;105821;1259;65999;-82
2023/01/31 05:29:44;;;;;;;27.10;18.20;;;;;;;-3.54;76.08;99276.26;106075;1259;59840;-82
2023/01/31 05:32:13;;;;;;;32.80;20.50;;;;;;;-3.52;76.30;99276.70;105930;1256;65419;-82
2023/01/31 05:34:40;;;;;;;28.60;18.50;;;;;;;-3.52;76.36;99272.02;105676;1258;59610;-82
2023/01/31 05:37:06;;;;;;;29.90;19.50;;;;;;;-3.50;76.41;99268.89;106269;1254;59606;-80
2023/01/31 05:39:36;;;;;;;30.60;19.40;;;;;;;-3.50;76.51;99268.02;105873;1256;65789;-81
2023/01/31 05:42:03;;;;;;;30.60;20.00;;;;;;;-3.49;76.55;99271.05;105776;1254;59804;-82
2023/01/31 05:44:31;;;;;;;29.10;18.20;;;;;;;-3.47;76.63;99270.29;106371;1256;64615;-83
2023/01/31 05:46:59;;;;;;;28.40;19.70;;;;;;;-3.44;76.66;99270.37;105772;1256;59762;-83
2023/01/31 05:49:30;;;;;;;32.40;21.40;;;;;;;-3.42;76.78;99278.55;105752;1257;59613;-83
2023/01/31 05:51:58;;;;;;;30.40;19.30;;;;;;;-3.39;76.77;99283.75;105798;1258;65820;-83
2023/01/31 05:54:25;;;;;;;29.70;18.20;;;;;;;-3.38;76.86;99283.38;105687;1260;59816;-83
2023/01/31 05:56:55;;;;;;;31.80;20.20;;;;;;;-3.39;76.85;99284.77;105717;1256;65559;-83
2023/01/31 05:59:22;;;;;;;28.70;17.80;;;;;;;-3.38;76.98;99285.79;105667;1254;59991;-83
2023/01/31 06:01:49;;;;;;;31.50;18.40;;;;;;;-3.38;77.02;99287.84;105414;1260;59825;-83
2023/01/31 06:04:20;;;;;;;29.00;19.10;;;;;;;-3.38;77.15;99295.43;105393;1256;66048;-83
2023/01/31 06:06:46;;;;;;;28.60;18.00;;;;;;;-3.38;77.15;99298.33;105612;1253;60144;-83
2023/01/31 06:09:13;;;;;;;27.70;18.30;;;;;;;-3.36;77.18;99300.01;105740;1257;64389;-83
2023/01/31 06:11:40;;;;;;;31.60;19.60;;;;;;;-3.34;77.30;99302.81;105608;1257;59508;-82
2023/01/31 08:25:06;;;;;;;33.70;23.70;;;;;;;-2.59;82.41;99357.86;103752;1282;604972;-79
2023/01/31 08:27:34;;;;;;;29.20;20.90;;;;;;;-2.00;80.77;99360.24;104998;1266;88519;-76
2023/01/31 08:30:03;;;;;;;31.20;21.60;;;;;;;-1.98;80.51;99357.74;106110;1254;59372;-76
2023/01/31 08:32:31;;;;;;;30.50;20.80;;;;;;;-1.95;80.35;99356.73;105700;1256;65144;-77
2023/01/31 08:35:04;;;;;;;34.40;21.20;;;;;;;-1.90;80.20;99362.39;105975;1254;59827;-82
2023/01/31 08:37:33;;;;;;;29.80;20.10;;;;;;;-1.87;79.96;99364.33;105734;1254;65281;-82
2023/01/31 08:40:02;;;;;;;29.00;20.50;;;;;;;-1.87;79.89;99365.83;105702;1256;59366;-79
2023/01/31 08:42:30;;;;;;;30.20;19.80;;;;;;;-1.85;79.73;99361.45;105800;1254;59347;-82
2023/01/31 08:44:59;;;;;;;27.30;18.60;;;;;;;-1.84;79.46;99360.73;105831;1257;65073;-79
2023/01/31 08:47:30;;;;;;;30.30;19.40;;;;;;;-1.82;79.44;99363.59;105792;1254;60528;-80
2023/01/31 08:49:58;;;;;;;26.50;18.90;;;;;;;-1.81;79.40;99364.73;105650;1257;64501;-82
2023/01/31 08:52:26;;;;;;;25.80;17.80;;;;;;;-1.80;79.25;99360.54;105604;1254;59613;-83
2023/01/31 08:54:54;;;;;;;28.00;19.00;;;;;;;-1.81;79.01;99361.46;105752;1253;59646;-82
2023/01/31 08:57:22;;;;;;;26.40;18.40;;;;;;;-1.83;78.90;99361.88;105721;1253;65231;-78
2023/01/31 08:59:50;;;;;;;27.70;18.40;;;;;;;-1.84;78.87;99361.40;106138;1256;59497;-82
2023/01/31 09:02:18;;;;;;;27.50;18.20;;;;;;;-1.83;78.93;99360.16;105898;1259;65532;-81
2023/01/31 09:04:47;;;;;;;24.90;16.90;;;;;;;-1.80;78.90;99360.40;105951;1257;59544;-77
2023/01/31 09:07:15;;;;;;;25.60;16.90;;;;;;;-1.80;78.72;99362.44;105717;1254;59622;-77
2023/01/31 09:09:44;;;;;;;26.20;17.40;;;;;;;-1.80;78.72;99365.91;105747;1258;65584;-74
2023/01/31 09:12:12;;;;;;;27.50;19.30;;;;;;;-1.76;78.75;99365.89;106010;1257;59734;-80
2023/01/31 09:14:41;;;;;;;27.60;19.00;;;;;;;-1.72;78.67;99360.17;105696;1254;65319;-80
2023/01/31 09:17:09;;;;;;;26.40;17.80;;;;;;;-1.66;78.75;99359.92;105738;1257;59533;-81
2023/01/31 09:19:38;;;;;;;26.20;18.60;;;;;;;-1.64;78.58;99364.83;105727;1254;59650;-79
2023/01/31 09:22:06;;;;;;;28.30;19.50;;;;;;;-1.62;78.55;99368.73;106224;1258;64814;-77
2023/01/31 09:24:34;;;;;;;26.70;18.40;;;;;;;-1.60;78.48;99370.16;105625;1254;59576;-79
2023/01/31 09:27:04;;;;;;;26.10;17.40;;;;;;;-1.57;78.45;99366.73;105623;1254;65543;-80
2023/01/31 09:29:32;;;;;;;24.70;17.50;;;;;;;-1.54;78.40;99365.75;105672;1254;59587;-79
2023/01/31 09:32:00;;;;;;;27.10;19.00;;;;;;;-1.50;78.38;99368.83;105695;1258;59651;-76
2023/01/31 09:34:29;;;;;;;25.80;17.70;;;;;;;-1.47;78.33;99365.77;105711;1254;66178;-76
2023/01/31 09:36:58;;;;;;;28.00;18.00;;;;;;;-1.44;78.33;99366.48;105747;1254;59924;-74
2023/01/31 09:39:26;;;;;;;25.30;18.10;;;;;;;-1.39;78.26;99367.96;105724;1256;65612;-75
2023/01/31 09:42:16;;;;;;;25.90;17.50;;;;;;;-1.36;78.21;99369.39;105808;1254;59612;-73
2023/01/31 09:44:53;;;;;;;25.10;17.60;;;;;;;-1.35;78.10;99369.52;105869;1255;59614;-75
2023/01/31 09:47:28;;;;;;;26.80;17.90;;;;;;;-1.34;78.12;99369.16;105897;1257;66154;-72
2023/01/31 09:50:00;;;;;;;24.40;17.20;;;;;;;-1.33;78.08;99370.65;105857;1256;59647;-71
2023/01/31 09:52:30;;;;;;;24.70;17.40;;;;;;;-1.30;78.07;99367.56;105956;1254;65674;-79
2023/01/31 09:54:59;;;;;;;25.00;17.40;;;;;;;-1.28;78.06;99369.52;106012;1254;59717;-78
2023/01/31 09:57:45;;;;;;;24.40;17.20;;;;;;;-1.27;77.94;99373.95;106220;1256;59676;-79
2023/01/31 10:00:14;;;;;;;24.90;18.00;;;;;;;-1.23;77.96;99375.70;105856;1254;65682;-80
2023/01/31 10:03:17;;;;;;;26.80;18.60;;;;;;;-1.20;77.97;99376.03;105985;1256;59756;-78
2023/01/31 10:05:55;;;;;;;24.50;17.20;;;;;;;-1.19;77.93;99377.05;105809;1254;64584;-78
2023/01/31 10:08:39;;;;;;;24.60;18.30;;;;;;;-1.18;77.91;99377.67;106108;1256;59561;-79
2023/01/31 10:11:15;;;;;;;25.50;18.10;;;;;;;-1.11;78.01;99376.86;106191;1256;59664;-73
2023/01/31 10:13:50;;;;;;;29.20;18.60;;;;;;;-1.06;77.92;99373.36;106246;1254;64592;-73
2023/01/31 10:16:25;;;;;;;27.30;18.60;;;;;;;-1.05;77.84;99368.14;105924;1255;59532;-72
2023/01/31 10:19:00;;;;;;;24.10;17.10;;;;;;;-1.06;77.82;99365.90;105925;1253;64195;-72
2023/01/31 10:21:36;;;;;;;25.10;17.10;;;;;;;-1.06;77.82;99362.45;105893;1253;59626;-70
2023/01/31 10:24:17;;;;;;;26.00;17.70;;;;;;;-1.05;77.83;99366.56;105734;1254;59668;-71
2023/01/31 10:26:45;;;;;;;26.80;18.00;;;;;;;-1.02;77.91;99366.38;105843;1259;66102;-72
2023/01/31 10:29:27;;;;;;;30.70;20.30;;;;;;;-0.99;77.88;99365.91;105792;1257;60071;-76
2023/01/31 10:32:28;;;;;;;28.00;19.10;;;;;;;-0.99;77.86;99358.29;106329;1253;65304;-75
2023/01/31 10:35:03;;;;;;;29.40;18.60;;;;;;;-0.96;77.90;99358.35;105703;1254;59641;-75
2023/01/31 10:37:38;;;;;;;34.00;21.00;;;;;;;-0.95;77.95;99353.98;105675;1254;59671;-75
2023/01/31 10:40:21;;;;;;;31.20;20.00;;;;;;;-0.94;77.96;99346.82;105970;1253;65901;-72
2023/01/31 10:42:53;;;;;;;32.40;20.40;;;;;;;-0.91;77.98;99349.27;105853;1259;59885;-72
2023/01/31 10:45:29;;;;;;;;;;;;;;;-0.88;78.01;99347.74;106037;1254;65356;-73
2023/01/31 10:48:15;;;;;;;28.30;19.80;;;;;;;-0.84;78.10;99344.92;105836;1253;59668;-74
2023/01/31 10:51:07;;;;;;;28.90;21.50;;;;;;;-0.77;78.08;99345.82;105907;1254;59678;-72
2023/01/31 10:54:19;;;;;;;32.80;21.70;;;;;;;-0.75;78.05;99346.23;105851;1257;65836;-72
2023/01/31 10:56:47;;;;;;;33.10;21.50;;;;;;;-0.73;78.05;99346.32;105716;1253;59722;-72
2023/01/31 10:59:24;;;;;;;29.10;20.00;;;;;;;-0.72;77.89;99351.80;105769;1253;65601;-70
2023/01/31 11:01:53;;;;;;;27.00;19.00;;;;;;;-0.72;77.84;99353.34;105291;1254;59660;-70
2023/01/31 11:04:29;;;;;;;26.30;18.60;;;;;;;-0.71;77.84;99352.95;105568;1253;59871;-74
2023/01/31 11:06:59;;;;;;;25.00;17.80;;;;;;;-0.68;77.81;99356.08;106416;1253;65576;-73
2023/01/31 11:09:31;;;;;;;24.80;17.90;;;;;;;-0.68;77.79;99351.42;105913;1253;59740;-75
2023/01/31 11:12:01;;;;;;;25.10;17.00;;;;;;;-0.66;77.80;99351.48;105913;1254;64710;-76
2023/01/31 11:14:30;;;;;;;26.90;18.30;;;;;;;-0.65;77.82;99348.66;105622;1258;59538;-75
2023/01/31 11:17:13;;;;;;;24.60;16.70;;;;;;;-0.65;77.78;99350.77;106119;1254;59642;-76
2023/01/31 11:19:47;;;;;;;25.00;17.20;;;;;;;-0.67;77.69;99348.79;106412;1254;65046;-79
2023/01/31 11:22:29;;;;;;;24.00;17.00;;;;;;;-0.68;77.67;99349.15;106477;1257;59471;-75
2023/01/31 11:24:58;;;;;;;27.60;18.90;;;;;;;-0.67;77.72;99347.22;105989;1253;65356;-75
2023/01/31 11:27:37;;;;;;;28.00;20.20;;;;;;;-0.65;77.74;99348.33;105793;1254;59726;-76
2023/01/31 11:30:06;;;;;;;26.60;18.90;;;;;;;-0.61;77.75;99349.52;108237;1253;58797;-80
2023/01/31 11:32:35;;;;;;;27.30;19.50;;;;;;;-0.59;77.72;99349.58;108904;1253;64669;-78
2023/01/31 11:35:05;;;;;;;25.10;17.40;;;;;;;-0.57;77.73;99344.31;108680;1253;59805;-75
2023/01/31 11:37:33;;;;;;;26.90;18.80;;;;;;;-0.55;77.71;99343.35;108992;1253;65022;-80
2023/01/31 11:40:14;;;;;;;28.40;18.90;;;;;;;-0.52;77.77;99336.63;107912;1254;59669;-76
2023/01/31 11:42:52;;;;;;;28.00;20.20;;;;;;;-0.50;77.74;99334.76;105785;1254;60245;-75
2023/01/31 11:45:22;;;;;;;25.90;18.40;;;;;;;-0.45;77.85;99334.38;105805;1254;65124;-76
2023/01/31 11:47:52;;;;;;;26.80;19.80;;;;;;;-0.39;77.81;99336.47;105596;1256;59635;-77
2023/01/31 11:50:21;;;;;;;28.70;20.10;;;;;;;-0.36;77.74;99335.81;105683;1256;65599;-74
2023/01/31 11:53:03;;;;;;;26.60;19.80;;;;;;;-0.40;77.64;99339.45;105779;1253;59613;-74
2023/01/31 11:55:36;;;;;;;29.20;19.70;;;;;;;-0.43;77.62;99340.48;105578;1254;59625;-72
2023/01/31 11:58:18;;;;;;;28.80;21.20;;;;;;;-0.42;77.71;99345.98;105321;1263;64893;-72
2023/01/31 12:01:13;;;;;;;33.10;19.70;;;;;;;-0.39;77.78;99344.24;105443;1259;59853;-72
2023/01/31 14:19:43;;;;;;;43.50;30.30;;;;;;;-0.74;83.57;99404.52;103378;1288;605010;-73
2023/01/31 14:22:16;;;;;;;41.30;27.50;;;;;;;-0.23;81.84;99407.77;104813;1272;116387;-73
2023/01/31 14:24:57;;;;;;;45.70;30.90;;;;;;;-0.24;81.68;99411.09;105229;1269;59326;-73
2023/01/31 14:27:41;;;;;;;44.80;30.80;;;;;;;-0.23;81.56;99414.21;104844;1268;63839;-73
2023/01/31 14:30:19;;;;;;;45.10;31.40;;;;;;;-0.23;81.54;99418.52;104913;1269;59952;-74
2023/01/31 14:32:48;;;;;;;47.50;32.40;;;;;;;-0.23;81.41;99420.61;104929;1268;64781;-72
2023/01/31 14:35:40;;;;;;;40.80;28.80;;;;;;;-0.23;81.31;99417.33;104952;1270;59109;-74
2023/01/31 14:38:23;;;;;;;41.90;28.30;;;;;;;-0.24;81.23;99417.86;104670;1267;59290;-72
2023/01/31 14:41:05;;;;;;;40.60;25.60;;;;;;;-0.24;81.14;99418.94;104897;1270;64926;-73
2023/01/31 14:43:43;;;;;;;40.50;25.80;;;;;;;-0.25;81.06;99420.52;104846;1272;59867;-73
2023/01/31 14:46:15;;;;;;;41.00;26.60;;;;;;;-0.27;81.01;99418.55;104886;1267;65220;-73
2023/01/31 14:49:09;;;;;;;39.80;26.40;;;;;;;-0.28;80.92;99414.77;104765;1271;59580;-75
2023/01/31 14:52:06;;;;;;;40.10;26.60;;;;;;;-0.28;80.88;99415.84;104839;1267;60092;-73
2023/01/31 14:54:41;;;;;;;;;;;;;;;-0.28;80.87;99418.96;104864;1272;65782;-74
2023/01/31 14:57:29;;;;;;;40.00;26.40;;;;;;;-0.29;80.81;99431.08;104865;1272;59666;-73
2023/01/31 15:00:14;;;;;;;37.60;25.50;;;;;;;-0.30;80.73;99435.45;104898;1267;65316;-73
2023/01/31 15:02:48;;;;;;;41.40;28.60;;;;;;;-0.31;80.73;99436.54;104903;1265;59765;-73
2023/01/31 15:05:32;;;;;;;39.80;27.50;;;;;;;-0.30;80.66;99440.47;105170;1267;59569;-74
2023/01/31 15:08:05;;;;;;;36.10;25.50;;;;;;;-0.30;80.63;99438.41;105142;1268;65953;-75
2023/01/31 15:11:02;;;;;;;50.10;33.60;;;;;;;-0.31;80.54;99435.86;104985;1270;59748;-73
2023/01/31 15:13:46;;;;;;;43.60;28.70;;;;;;;-0.33;80.53;99438.54;105123;1264;65320;-73
2023/01/31 15:16:31;;;;;;;42.30;28.30;;;;;;;-0.33;80.48;99439.56;105467;1264;59650;-72
2023/01/31 15:19:19;;;;;;;39.80;26.10;;;;;;;-0.32;80.49;99434.85;105553;1261;59689;-73
2023/01/31 15:21:54;;;;;;;37.30;25.50;;;;;;;-0.32;80.48;99433.81;105303;1266;65992;-73
2023/01/31 15:24:34;;;;;;;36.80;24.90;;;;;;;-0.32;80.47;99435.02;105721;1259;60084;-73
2023/01/31 15:27:06;;;;;;;40.10;27.10;;;;;;;-0.32;80.47;99442.66;105891;1259;65027;-74
2023/01/31 15:30:08;;;;;;;42.90;28.60;;;;;;;-0.32;80.32;99447.68;105758;1259;59640;-73
2023/01/31 15:32:39;;;;;;;45.40;31.60;;;;;;;-0.33;80.43;99446.84;105695;1257;59679;-73
2023/01/31 15:35:22;;;;;;;48.40;32.30;;;;;;;-0.33;80.39;99442.52;105682;1260;65924;-73
2023/01/31 15:37:57;;;;;;;42.60;29.50;;;;;;;-0.33;80.40;99440.61;105682;1262;59737;-76
2023/01/31 15:40:27;;;;;;;43.40;28.90;;;;;;;-0.33;80.30;99443.58;105701;1259;64268;-73
2023/01/31 15:43:21;;;;;;;44.60;28.60;;;;;;;-0.33;80.31;99444.08;105667;1261;59615;-73
2023/01/31 15:45:53;;;;;;;46.90;30.00;;;;;;;-0.32;80.28;99446.48;105564;1261;59603;-73
2023/01/31 15:48:21;;;;;;;46.80;31.50;;;;;;;-0.33;80.26;99450.99;105710;1259;65726;-73
2023/01/31 15:50:55;;;;;;;53.30;36.40;;;;;;;-0.31;80.36;99458.88;105851;1259;59940;-73
2023/01/31 15:53:25;;;;;;;52.90;37.30;;;;;;;-0.32;80.27;99458.20;105760;1258;65597;-74
2023/01/31 15:55:55;;;;;;;47.00;33.60;;;;;;;-0.32;80.24;99456.48;105465;1264;59720;-73
2023/01/31 15:58:26;;;;;;;47.30;32.60;;;;;;;-0.33;80.21;99456.71;105671;1258;59696;-74
2023/01/31 16:00:59;;;;;;;49.00;33.30;;;;;;;-0.34;80.14;99457.11;105459;1263;65165;-77
2023/01/31 16:03:38;;;;;;;45.20;31.90;;;;;;;-0.34;80.17;99457.29;105517;1261;59865;-74
2023/01/31 16:06:16;;;;;;;45.70;31.00;;;;;;;-0.34;80.14;99456.75;105749;1260;64969;-76
2023/01/31 16:08:50;;;;;;;47.30;31.30;;;;;;;-0.34;80.24;99459.02;105630;1260;59611;-74
2023/01/31 16:11:18;;;;;;;77.40;50.70;;;;;;;-0.34;80.16;99457.62;105650;1259;59543;-74
2023/01/31 16:13:47;;;;;;;66.50;42.40;;;;;;;-0.33;80.19;99456.02;105434;1256;65948;-74
2023/01/31 16:16:15;;;;;;;71.70;45.10;;;;;;;-0.33;80.10;99457.77;105630;1257;60004;-74